sensor_id;sensor_type;location;lat;lon;timestamp;P1;durP1;ratioP1;P2;durP2;ratioP2
32146;SDS011;32190;49.112;8.598;2023-12-29T00:01:14;1.13;;;1.02;;
32146;SDS011;32190;49.112;8.598;2023-12-29T00:07:04;0.98;;;0.98;;
32146;SDS011;32190;49.112;8.598;2023-12-29T00:12:55;1.95;;;1.13;;
32146;SDS011;32190;49.112;8.598;2023-12-29T00:18:45;1.48;;;1.23;;
32146;SDS011;32190;49.112;8.598;2023-12-29T00:24:36;1.17;;;1.08;;
32146;SDS011;32190;49.112;8.598;2023-12-29T00:30:26;1.58;;;1.48;;
32146;SDS011;32190;49.112;8.598;2023-12-29T00:36:18;1.70;;;1.60;;
32146;SDS011;32190;49.112;8.598;2023-12-29T00:42:10;1.80;;;1.70;;
32146;SDS011;32190;49.112;8.598;2023-12-29T00:48:00;1.50;;;1.40;;
32146;SDS011;32190;49.112;8.598;2023-12-29T00:53:51;1.35;;;1.25;;
32146;SDS011;32190;49.112;8.598;2023-12-29T00:59:42;1.40;;;1.30;;
32146;SDS011;32190;49.112;8.598;2023-12-29T01:05:34;1.52;;;1.42;;
32146;SDS011;32190;49.112;8.598;2023-12-29T01:11:24;1.40;;;1.30;;
32146;SDS011;32190;49.112;8.598;2023-12-29T01:17:15;1.45;;;1.35;;
32146;SDS011;32190;49.112;8.598;2023-12-29T01:23:05;1.52;;;1.40;;
32146;SDS011;32190;49.112;8.598;2023-12-29T01:28:56;2.05;;;1.45;;
32146;SDS011;32190;49.112;8.598;2023-12-29T01:34:46;2.08;;;1.40;;
32146;SDS011;32190;49.112;8.598;2023-12-29T01:40:44;1.83;;;1.30;;
32146;SDS011;32190;49.112;8.598;2023-12-29T01:46:35;1.40;;;1.30;;
32146;SDS011;32190;49.112;8.598;2023-12-29T01:52:25;1.25;;;1.15;;
32146;SDS011;32190;49.112;8.598;2023-12-29T01:58:16;1.67;;;1.35;;
32146;SDS011;32190;49.112;8.598;2023-12-29T02:04:06;1.63;;;1.27;;
32146;SDS011;32190;49.112;8.598;2023-12-29T02:09:58;1.58;;;1.42;;
32146;SDS011;32190;49.112;8.598;2023-12-29T02:15:52;1.77;;;1.15;;
32146;SDS011;32190;49.112;8.598;2023-12-29T02:21:48;1.08;;;1.02;;
32146;SDS011;32190;49.112;8.598;2023-12-29T02:33:49;2.83;;;1.38;;
32146;SDS011;32190;49.112;8.598;2023-12-29T02:39:42;1.30;;;1.20;;
32146;SDS011;32190;49.112;8.598;2023-12-29T02:45:33;1.35;;;1.25;;
32146;SDS011;32190;49.112;8.598;2023-12-29T02:51:23;1.27;;;1.17;;
32146;SDS011;32190;49.112;8.598;2023-12-29T02:57:14;1.77;;;1.33;;
32146;SDS011;32190;49.112;8.598;2023-12-29T03:03:04;0.95;;;0.90;;
32146;SDS011;32190;49.112;8.598;2023-12-29T03:08:55;1.40;;;1.15;;
32146;SDS011;32190;49.112;8.598;2023-12-29T03:14:45;1.35;;;1.23;;
32146;SDS011;32190;49.112;8.598;2023-12-29T03:20:37;0.90;;;0.90;;
32146;SDS011;32190;49.112;8.598;2023-12-29T03:26:27;1.00;;;1.00;;
32146;SDS011;32190;49.112;8.598;2023-12-29T03:32:18;1.20;;;1.05;;
32146;SDS011;32190;49.112;8.598;2023-12-29T03:38:09;1.15;;;1.05;;
32146;SDS011;32190;49.112;8.598;2023-12-29T03:43:59;1.00;;;1.00;;
32146;SDS011;32190;49.112;8.598;2023-12-29T03:49:50;1.38;;;1.00;;
32146;SDS011;32190;49.112;8.598;2023-12-29T03:55:41;0.77;;;0.77;;
32146;SDS011;32190;49.112;8.598;2023-12-29T04:01:33;0.88;;;0.88;;
32146;SDS011;32190;49.112;8.598;2023-12-29T04:07:23;1.60;;;1.10;;
32146;SDS011;32190;49.112;8.598;2023-12-29T04:13:14;0.70;;;0.70;;
32146;SDS011;32190;49.112;8.598;2023-12-29T04:19:04;1.13;;;0.93;;
32146;SDS011;32190;49.112;8.598;2023-12-29T04:24:55;0.80;;;0.80;;
32146;SDS011;32190;49.112;8.598;2023-12-29T04:30:46;1.20;;;1.05;;
32146;SDS011;32190;49.112;8.598;2023-12-29T04:36:36;0.65;;;0.65;;
32146;SDS011;32190;49.112;8.598;2023-12-29T04:42:27;1.67;;;1.00;;
32146;SDS011;32190;49.112;8.598;2023-12-29T04:48:17;1.25;;;1.05;;
32146;SDS011;32190;49.112;8.598;2023-12-29T04:54:08;1.48;;;1.38;;
32146;SDS011;32190;49.112;8.598;2023-12-29T04:59:59;1.00;;;1.00;;
32146;SDS011;32190;49.112;8.598;2023-12-29T05:05:49;1.25;;;1.15;;
32146;SDS011;32190;49.112;8.598;2023-12-29T05:11:40;0.75;;;0.75;;
32146;SDS011;32190;49.112;8.598;2023-12-29T05:17:30;1.00;;;1.00;;
32146;SDS011;32190;49.112;8.598;2023-12-29T05:23:21;1.13;;;1.02;;
32146;SDS011;32190;49.112;8.598;2023-12-29T05:29:11;1.83;;;1.15;;
32146;SDS011;32190;49.112;8.598;2023-12-29T05:35:02;0.90;;;0.90;;
32146;SDS011;32190;49.112;8.598;2023-12-29T05:40:53;1.33;;;1.00;;
32146;SDS011;32190;49.112;8.598;2023-12-29T05:46:46;1.13;;;1.05;;
32146;SDS011;32190;49.112;8.598;2023-12-29T05:52:37;1.33;;;1.23;;
32146;SDS011;32190;49.112;8.598;2023-12-29T05:58:28;1.20;;;1.20;;
32146;SDS011;32190;49.112;8.598;2023-12-29T06:04:18;1.00;;;1.00;;
32146;SDS011;32190;49.112;8.598;2023-12-29T06:10:09;0.68;;;0.68;;
32146;SDS011;32190;49.112;8.598;2023-12-29T06:16:00;1.25;;;1.25;;
32146;SDS011;32190;49.112;8.598;2023-12-29T06:21:50;1.10;;;1.10;;
32146;SDS011;32190;49.112;8.598;2023-12-29T06:27:41;0.80;;;0.80;;
32146;SDS011;32190;49.112;8.598;2023-12-29T06:33:31;0.75;;;0.75;;
32146;SDS011;32190;49.112;8.598;2023-12-29T06:39:22;0.93;;;0.93;;
32146;SDS011;32190;49.112;8.598;2023-12-29T06:45:13;0.90;;;0.90;;
32146;SDS011;32190;49.112;8.598;2023-12-29T06:51:04;1.17;;;1.08;;
32146;SDS011;32190;49.112;8.598;2023-12-29T06:56:55;0.82;;;0.82;;
32146;SDS011;32190;49.112;8.598;2023-12-29T07:02:45;1.08;;;1.00;;
32146;SDS011;32190;49.112;8.598;2023-12-29T07:08:36;1.27;;;1.17;;
32146;SDS011;32190;49.112;8.598;2023-12-29T07:14:26;1.00;;;0.90;;
32146;SDS011;32190;49.112;8.598;2023-12-29T07:20:17;2.33;;;1.63;;
32146;SDS011;32190;49.112;8.598;2023-12-29T07:26:07;1.63;;;1.45;;
32146;SDS011;32190;49.112;8.598;2023-12-29T07:31:58;6.40;;;3.63;;
32146;SDS011;32190;49.112;8.598;2023-12-29T07:37:49;2.30;;;2.10;;
32146;SDS011;32190;49.112;8.598;2023-12-29T07:43:39;1.40;;;1.30;;
32146;SDS011;32190;49.112;8.598;2023-12-29T07:49:30;1.23;;;1.13;;
32146;SDS011;32190;49.112;8.598;2023-12-29T07:55:21;1.58;;;1.48;;
32146;SDS011;32190;49.112;8.598;2023-12-29T08:01:11;1.23;;;1.10;;
32146;SDS011;32190;49.112;8.598;2023-12-29T08:07:02;1.25;;;1.17;;
32146;SDS011;32190;49.112;8.598;2023-12-29T08:12:53;1.13;;;1.10;;
32146;SDS011;32190;49.112;8.598;2023-12-29T08:18:45;0.95;;;0.95;;
32146;SDS011;32190;49.112;8.598;2023-12-29T08:24:42;1.23;;;1.13;;
32146;SDS011;32190;49.112;8.598;2023-12-29T08:30:35;1.23;;;1.08;;
32146;SDS011;32190;49.112;8.598;2023-12-29T08:36:28;2.80;;;1.30;;
32146;SDS011;32190;49.112;8.598;2023-12-29T08:42:19;3.97;;;2.72;;
32146;SDS011;32190;49.112;8.598;2023-12-29T08:48:09;1.70;;;1.60;;
32146;SDS011;32190;49.112;8.598;2023-12-29T08:54:00;1.90;;;1.80;;
32146;SDS011;32190;49.112;8.598;2023-12-29T08:59:50;2.15;;;1.67;;
32146;SDS011;32190;49.112;8.598;2023-12-29T09:05:41;1.25;;;1.17;;
32146;SDS011;32190;49.112;8.598;2023-12-29T09:11:31;1.17;;;1.00;;
32146;SDS011;32190;49.112;8.598;2023-12-29T09:17:22;1.33;;;1.23;;
32146;SDS011;32190;49.112;8.598;2023-12-29T09:23:12;1.00;;;1.00;;
32146;SDS011;32190;49.112;8.598;2023-12-29T09:29:03;1.55;;;1.20;;
32146;SDS011;32190;49.112;8.598;2023-12-29T09:34:54;1.20;;;1.10;;
32146;SDS011;32190;49.112;8.598;2023-12-29T09:40:45;1.10;;;1.00;;
32146;SDS011;32190;49.112;8.598;2023-12-29T09:46:37;0.77;;;0.77;;
32146;SDS011;32190;49.112;8.598;2023-12-29T09:52:27;1.00;;;1.00;;
32146;SDS011;32190;49.112;8.598;2023-12-29T09:58:21;1.35;;;1.25;;
32146;SDS011;32190;49.112;8.598;2023-12-29T10:04:12;0.85;;;0.85;;
32146;SDS011;32190;49.112;8.598;2023-12-29T10:10:02;0.90;;;0.90;;
32146;SDS011;32190;49.112;8.598;2023-12-29T10:16:42;0.90;;;0.90;;
32146;SDS011;32190;49.112;8.598;2023-12-29T10:22:18;0.90;;;0.90;;
32146;SDS011;32190;49.112;8.598;2023-12-29T10:28:15;1.50;;;1.33;;
32146;SDS011;32190;49.112;8.598;2023-12-29T10:34:17;1.70;;;1.38;;
32146;SDS011;32190;49.112;8.598;2023-12-29T10:40:18;1.40;;;1.20;;
32146;SDS011;32190;49.112;8.598;2023-12-29T10:46:10;1.67;;;1.27;;
32146;SDS011;32190;49.112;8.598;2023-12-29T10:52:10;0.93;;;0.93;;
32146;SDS011;32190;49.112;8.598;2023-12-29T10:58:03;3.65;;;1.55;;
32146;SDS011;32190;49.112;8.598;2023-12-29T11:03:58;2.28;;;1.40;;
32146;SDS011;32190;49.112;8.598;2023-12-29T11:15:44;1.58;;;0.98;;
32146;SDS011;32190;49.112;8.598;2023-12-29T11:21:35;1.10;;;0.90;;
32146;SDS011;32190;49.112;8.598;2023-12-29T11:27:28;2.85;;;1.52;;
32146;SDS011;32190;49.112;8.598;2023-12-29T11:33:23;1.83;;;1.50;;
32146;SDS011;32190;49.112;8.598;2023-12-29T11:39:40;1.23;;;1.05;;
32146;SDS011;32190;49.112;8.598;2023-12-29T11:45:47;1.17;;;1.05;;
32146;SDS011;32190;49.112;8.598;2023-12-29T11:51:46;0.80;;;0.80;;
32146;SDS011;32190;49.112;8.598;2023-12-29T11:57:39;1.10;;;1.00;;
32146;SDS011;32190;49.112;8.598;2023-12-29T12:03:32;0.93;;;0.82;;
32146;SDS011;32190;49.112;8.598;2023-12-29T12:09:23;0.70;;;0.68;;
32146;SDS011;32190;49.112;8.598;2023-12-29T12:21:17;0.50;;;0.50;;
32146;SDS011;32190;49.112;8.598;2023-12-29T12:27:09;0.60;;;0.60;;
32146;SDS011;32190;49.112;8.598;2023-12-29T12:33:01;1.10;;;0.80;;
32146;SDS011;32190;49.112;8.598;2023-12-29T12:38:57;0.70;;;0.70;;
32146;SDS011;32190;49.112;8.598;2023-12-29T12:44:54;0.60;;;0.60;;
32146;SDS011;32190;49.112;8.598;2023-12-29T12:50:46;0.80;;;0.80;;
32146;SDS011;32190;49.112;8.598;2023-12-29T12:56:38;5.53;;;1.55;;
32146;SDS011;32190;49.112;8.598;2023-12-29T13:02:32;1.10;;;0.80;;
32146;SDS011;32190;49.112;8.598;2023-12-29T13:08:23;0.80;;;0.80;;
32146;SDS011;32190;49.112;8.598;2023-12-29T13:14:21;1.02;;;0.70;;
32146;SDS011;32190;49.112;8.598;2023-12-29T13:20:12;0.68;;;0.68;;
32146;SDS011;32190;49.112;8.598;2023-12-29T13:26:04;0.60;;;0.60;;
32146;SDS011;32190;49.112;8.598;2023-12-29T13:31:59;0.70;;;0.68;;
32146;SDS011;32190;49.112;8.598;2023-12-29T13:38:12;0.65;;;0.65;;
32146;SDS011;32190;49.112;8.598;2023-12-29T13:44:26;0.50;;;0.50;;
32146;SDS011;32190;49.112;8.598;2023-12-29T13:50:19;0.55;;;0.52;;
32146;SDS011;32190;49.112;8.598;2023-12-29T13:56:10;0.90;;;0.77;;
32146;SDS011;32190;49.112;8.598;2023-12-29T14:02:03;0.50;;;0.50;;
32146;SDS011;32190;49.112;8.598;2023-12-29T14:14:23;0.80;;;0.80;;
32146;SDS011;32190;49.112;8.598;2023-12-29T14:26:22;0.80;;;0.50;;
32146;SDS011;32190;49.112;8.598;2023-12-29T14:32:13;0.57;;;0.57;;
32146;SDS011;32190;49.112;8.598;2023-12-29T14:38:03;0.40;;;0.40;;
32146;SDS011;32190;49.112;8.598;2023-12-29T14:43:54;0.60;;;0.60;;
32146;SDS011;32190;49.112;8.598;2023-12-29T14:49:45;0.75;;;0.60;;
32146;SDS011;32190;49.112;8.598;2023-12-29T14:55:36;0.70;;;0.70;;
32146;SDS011;32190;49.112;8.598;2023-12-29T15:01:27;0.88;;;0.88;;
32146;SDS011;32190;49.112;8.598;2023-12-29T15:07:18;0.80;;;0.80;;
32146;SDS011;32190;49.112;8.598;2023-12-29T15:13:09;0.40;;;0.40;;
32146;SDS011;32190;49.112;8.598;2023-12-29T15:19:00;1.13;;;1.00;;
32146;SDS011;32190;49.112;8.598;2023-12-29T15:24:53;0.65;;;0.65;;
32146;SDS011;32190;49.112;8.598;2023-12-29T15:30:44;0.68;;;0.60;;
32146;SDS011;32190;49.112;8.598;2023-12-29T15:36:35;0.60;;;0.60;;
32146;SDS011;32190;49.112;8.598;2023-12-29T15:42:26;0.60;;;0.60;;
32146;SDS011;32190;49.112;8.598;2023-12-29T15:48:17;0.70;;;0.70;;
32146;SDS011;32190;49.112;8.598;2023-12-29T15:54:10;0.70;;;0.70;;
32146;SDS011;32190;49.112;8.598;2023-12-29T16:00:01;0.50;;;0.50;;
32146;SDS011;32190;49.112;8.598;2023-12-29T16:05:51;1.25;;;0.60;;
32146;SDS011;32190;49.112;8.598;2023-12-29T16:11:42;0.80;;;0.80;;
32146;SDS011;32190;49.112;8.598;2023-12-29T16:17:32;0.90;;;0.80;;
32146;SDS011;32190;49.112;8.598;2023-12-29T16:23:23;0.65;;;0.65;;
32146;SDS011;32190;49.112;8.598;2023-12-29T16:29:13;0.63;;;0.63;;
32146;SDS011;32190;49.112;8.598;2023-12-29T16:35:04;1.58;;;0.80;;
32146;SDS011;32190;49.112;8.598;2023-12-29T16:40:55;0.90;;;0.90;;
32146;SDS011;32190;49.112;8.598;2023-12-29T16:46:46;0.50;;;0.50;;
32146;SDS011;32190;49.112;8.598;2023-12-29T16:52:36;0.73;;;0.52;;
32146;SDS011;32190;49.112;8.598;2023-12-29T16:58:27;0.60;;;0.60;;
32146;SDS011;32190;49.112;8.598;2023-12-29T17:04:17;0.63;;;0.60;;
32146;SDS011;32190;49.112;8.598;2023-12-29T17:10:09;1.15;;;0.85;;
32146;SDS011;32190;49.112;8.598;2023-12-29T17:15:59;0.77;;;0.77;;
32146;SDS011;32190;49.112;8.598;2023-12-29T17:21:50;0.82;;;0.70;;
32146;SDS011;32190;49.112;8.598;2023-12-29T17:27:40;0.82;;;0.82;;
32146;SDS011;32190;49.112;8.598;2023-12-29T17:33:33;0.95;;;0.95;;
32146;SDS011;32190;49.112;8.598;2023-12-29T17:39:24;0.85;;;0.82;;
32146;SDS011;32190;49.112;8.598;2023-12-29T17:45:14;0.90;;;0.90;;
32146;SDS011;32190;49.112;8.598;2023-12-29T17:51:05;1.30;;;1.15;;
32146;SDS011;32190;49.112;8.598;2023-12-29T17:56:57;0.77;;;0.73;;
32146;SDS011;32190;49.112;8.598;2023-12-29T18:02:48;1.02;;;1.00;;
32146;SDS011;32190;49.112;8.598;2023-12-29T18:08:38;0.95;;;0.95;;
32146;SDS011;32190;49.112;8.598;2023-12-29T18:14:39;0.80;;;0.80;;
32146;SDS011;32190;49.112;8.598;2023-12-29T18:20:30;0.77;;;0.77;;
32146;SDS011;32190;49.112;8.598;2023-12-29T18:26:21;1.00;;;0.90;;
32146;SDS011;32190;49.112;8.598;2023-12-29T18:32:12;1.15;;;1.05;;
32146;SDS011;32190;49.112;8.598;2023-12-29T18:38:03;0.85;;;0.85;;
32146;SDS011;32190;49.112;8.598;2023-12-29T18:43:53;0.95;;;0.95;;
32146;SDS011;32190;49.112;8.598;2023-12-29T18:49:44;0.93;;;0.80;;
32146;SDS011;32190;49.112;8.598;2023-12-29T18:55:34;2.10;;;1.70;;
32146;SDS011;32190;49.112;8.598;2023-12-29T19:01:25;2.25;;;1.50;;
32146;SDS011;32190;49.112;8.598;2023-12-29T19:07:16;1.40;;;1.30;;
32146;SDS011;32190;49.112;8.598;2023-12-29T19:13:08;1.10;;;1.10;;
32146;SDS011;32190;49.112;8.598;2023-12-29T19:18:59;1.00;;;0.90;;
32146;SDS011;32190;49.112;8.598;2023-12-29T19:24:49;1.00;;;0.80;;
32146;SDS011;32190;49.112;8.598;2023-12-29T19:30:40;0.90;;;0.90;;
32146;SDS011;32190;49.112;8.598;2023-12-29T19:36:31;1.60;;;0.93;;
32146;SDS011;32190;49.112;8.598;2023-12-29T19:42:21;1.00;;;0.70;;
32146;SDS011;32190;49.112;8.598;2023-12-29T19:48:12;1.15;;;0.85;;
32146;SDS011;32190;49.112;8.598;2023-12-29T19:54:03;1.75;;;0.90;;
32146;SDS011;32190;49.112;8.598;2023-12-29T19:59:54;1.05;;;0.80;;
32146;SDS011;32190;49.112;8.598;2023-12-29T20:05:46;0.70;;;0.70;;
32146;SDS011;32190;49.112;8.598;2023-12-29T20:11:40;0.85;;;0.75;;
32146;SDS011;32190;49.112;8.598;2023-12-29T20:17:31;2.30;;;1.15;;
32146;SDS011;32190;49.112;8.598;2023-12-29T20:23:21;1.10;;;0.73;;
32146;SDS011;32190;49.112;8.598;2023-12-29T20:29:12;1.10;;;0.82;;
32146;SDS011;32190;49.112;8.598;2023-12-29T20:35:04;1.05;;;0.95;;
32146;SDS011;32190;49.112;8.598;2023-12-29T20:40:54;2.30;;;1.33;;
32146;SDS011;32190;49.112;8.598;2023-12-29T20:46:45;1.02;;;0.95;;
32146;SDS011;32190;49.112;8.598;2023-12-29T20:52:36;1.30;;;1.20;;
32146;SDS011;32190;49.112;8.598;2023-12-29T20:58:27;2.13;;;1.60;;
32146;SDS011;32190;49.112;8.598;2023-12-29T21:04:18;4.88;;;2.17;;
32146;SDS011;32190;49.112;8.598;2023-12-29T21:10:08;3.22;;;1.52;;
32146;SDS011;32190;49.112;8.598;2023-12-29T21:15:59;1.58;;;1.48;;
32146;SDS011;32190;49.112;8.598;2023-12-29T21:21:50;1.33;;;1.23;;
32146;SDS011;32190;49.112;8.598;2023-12-29T21:27:40;1.95;;;1.20;;
32146;SDS011;32190;49.112;8.598;2023-12-29T21:33:31;0.68;;;0.65;;
32146;SDS011;32190;49.112;8.598;2023-12-29T21:39:21;0.80;;;0.80;;
32146;SDS011;32190;49.112;8.598;2023-12-29T21:45:12;0.60;;;0.60;;
32146;SDS011;32190;49.112;8.598;2023-12-29T21:51:06;1.00;;;0.70;;
32146;SDS011;32190;49.112;8.598;2023-12-29T21:56:58;0.60;;;0.60;;
32146;SDS011;32190;49.112;8.598;2023-12-29T22:02:49;1.45;;;0.60;;
32146;SDS011;32190;49.112;8.598;2023-12-29T22:08:39;1.15;;;0.75;;
32146;SDS011;32190;49.112;8.598;2023-12-29T22:14:30;0.63;;;0.63;;
32146;SDS011;32190;49.112;8.598;2023-12-29T22:20:20;0.73;;;0.70;;
32146;SDS011;32190;49.112;8.598;2023-12-29T22:26:15;1.67;;;1.10;;
32146;SDS011;32190;49.112;8.598;2023-12-29T22:32:06;2.53;;;1.50;;
32146;SDS011;32190;49.112;8.598;2023-12-29T22:37:57;3.85;;;2.88;;
32146;SDS011;32190;49.112;8.598;2023-12-29T22:43:48;1.80;;;1.25;;
32146;SDS011;32190;49.112;8.598;2023-12-29T22:49:39;0.75;;;0.75;;
32146;SDS011;32190;49.112;8.598;2023-12-29T22:55:29;0.85;;;0.80;;
32146;SDS011;32190;49.112;8.598;2023-12-29T23:01:20;0.65;;;0.60;;
32146;SDS011;32190;49.112;8.598;2023-12-29T23:07:10;1.05;;;0.60;;
32146;SDS011;32190;49.112;8.598;2023-12-29T23:13:01;0.57;;;0.57;;
32146;SDS011;32190;49.112;8.598;2023-12-29T23:18:53;0.93;;;0.90;;
32146;SDS011;32190;49.112;8.598;2023-12-29T23:24:44;0.80;;;0.80;;
32146;SDS011;32190;49.112;8.598;2023-12-29T23:30:35;1.40;;;0.65;;
32146;SDS011;32190;49.112;8.598;2023-12-29T23:36:26;0.93;;;0.70;;
32146;SDS011;32190;49.112;8.598;2023-12-29T23:42:16;0.77;;;0.70;;
32146;SDS011;32190;49.112;8.598;2023-12-29T23:48:09;0.95;;;0.60;;
32146;SDS011;32190;49.112;8.598;2023-12-29T23:54:00;0.82;;;0.60;;
32146;SDS011;32190;49.112;8.598;2023-12-29T23:59:50;1.08;;;0.47;;
